Flugplatz Saulgau (EDTU)

Hier findest Du alle Informationen zum Flugplatz Saulgau (EDTU).

Informationen für Piloten zum Flugplatz Saulgau

Hier findest Du alle relevanten Informationen, die Du als Pilot benötigst, um Saulgau anzufliegen.

Flugplatz: Saulgau ICAO-Code: EDTU
Frequenz Turm: 123,600 Mhz GAFOR Gebiet: 72
Frequenz Ground: 123,600 Mhz Mogas: ja
Platzrunde: N 2800 ft Landegebühr: 3 €
Platzhöhe: 1.907 ft Sunrise: 03:29 Uhr UTC
Pisten: 13/31 - 450 m x 15 m, ASPH Sunset: 19:08 Uhr UTC

Mitglieder, die in Saulgau fliegen

Flugwetter am Flugplatz Saulgau

Die METAR Information stammen aus EDNY (39.92 km entfernt).

METAR Code:
2024/05/23 11:50
EDNY 231150Z 24014KT 5000 TSRA SCT006 BKN027CB OVC036 13/13 Q1016

Flugschulen am Flugplatz Saulgau

Am Flugplatz Saulgau gibt es eine Flugschule.

Benachbarte Flugplätze und Flugschulen

Es gibt 22 weitere Flugplätze in einem Umkreis von 50 km um den Flugplatz Saulgau.

Jetzt anmelden

Passwort vergessen

Umfrage Archiv

Wie häufig haltet Ihr die Halbkreisflugregel ein?

Eher häufig!
35.7 %
Immer!
31 %
Hin und wieder!
16.5 %
Nie!
9.4 %
Eher selten!
7.5 %
Stimmen: 255 | Diskussion
Anzeige: Roland Aircraft
Statistik Alle Mitglieder

Aktuell sind 15 Besucher online.

Anzeige: EasyVFR